Windsor, Missouri
Current Conditions -  °F | °C
As of 10:58 AM on Sunday 21 Dec 2014 (Local Time) from KSZL Reporting Station
Haze Haze  
Wind Chill: 35°   Ceiling: 600
Heat Index: 42°   Visibility: 6mi
Dew Point: 40°   Wind: 12mph
Humidity: 93%   Direction: 180°S
Pressure: 30.03"   Gusts: NA
Location:  38.53°N, 93.52°W
Report Text: KSZL 211658Z AUTO 18010KT 6SM BR OVC006 06/05 A3003 RMK AO2 SLP177 T00550045 $
Loading
Personal Weather Stations






























Interactive Weather Map New forecast layout! Learn more

10-Day Weather Forecast

Advertisements
Track Severe Weather on mobile